createdAt,value
2018-04-14T00:02:25.306Z,25.33
2018-04-14T00:04:53.588Z,27.13
2018-04-14T00:07:21.859Z,26.37
2018-04-14T00:09:50.127Z,25.95
2018-04-14T00:12:18.396Z,26.57
2018-04-14T00:14:46.687Z,28.87
2018-04-14T00:17:14.959Z,30.95
2018-04-14T00:19:43.239Z,29.63
2018-04-14T00:22:11.515Z,31.02
2018-04-14T00:24:39.766Z,30.92
2018-04-14T00:27:08.071Z,30.90
2018-04-14T00:29:36.356Z,31.30
2018-04-14T00:32:04.607Z,29.90
2018-04-14T00:34:32.860Z,28.80
2018-04-14T00:37:01.115Z,28.63
2018-04-14T00:39:30.166Z,26.77
2018-04-14T00:41:58.436Z,27.90
2018-04-14T00:44:26.694Z,26.67
2018-04-14T00:46:54.984Z,26.23
2018-04-14T00:49:23.259Z,23.07
2018-04-14T00:51:51.527Z,26.77
2018-04-14T00:54:19.792Z,25.97
2018-04-14T00:56:48.088Z,25.83
2018-04-14T00:59:16.351Z,26.20
2018-04-14T01:01:44.638Z,30.83
2018-04-14T01:04:12.916Z,31.10
2018-04-14T01:06:41.185Z,35.10
2018-04-14T01:09:09.472Z,34.27
2018-04-14T01:11:37.741Z,34.73
2018-04-14T01:14:06.023Z,38.00
2018-04-14T01:16:34.299Z,39.20
2018-04-14T01:19:02.562Z,38.00
2018-04-14T01:21:30.829Z,43.83
2018-04-14T01:23:59.083Z,41.65
2018-04-14T01:26:28.111Z,46.47
2018-04-14T01:28:56.388Z,41.30
2018-04-14T01:31:24.663Z,46.63
2018-04-14T01:33:52.929Z,44.37
2018-04-14T01:36:21.209Z,47.35
2018-04-14T01:38:49.469Z,44.17
2018-04-14T01:41:17.754Z,42.53
2018-04-14T01:43:46.003Z,51.37
2018-04-14T01:46:14.315Z,51.00
2018-04-14T01:48:42.585Z,49.17
2018-04-14T01:51:10.849Z,53.83
2018-04-14T01:53:39.143Z,56.33
2018-04-14T01:56:07.437Z,57.97
2018-04-14T01:58:35.790Z,58.28
2018-04-14T02:01:04.047Z,64.62
2018-04-14T02:03:32.305Z,63.00
2018-04-14T02:06:00.568Z,66.07
2018-04-14T02:08:29.602Z,65.13
2018-04-14T02:10:57.892Z,62.83
2018-04-14T02:13:26.169Z,68.37
2018-04-14T02:15:54.429Z,62.90
2018-04-14T02:18:22.723Z,64.45
2018-04-14T02:20:50.997Z,64.53
2018-04-14T02:23:19.264Z,61.95
2018-04-14T02:25:47.524Z,62.53
2018-04-14T02:28:15.820Z,64.30
2018-04-14T02:30:44.075Z,64.57
2018-04-14T02:33:12.344Z,63.80
2018-04-14T02:35:40.653Z,66.50
2018-04-14T02:38:08.921Z,66.80
2018-04-14T02:40:37.199Z,67.07
2018-04-14T02:43:05.460Z,65.28
2018-04-14T02:45:33.740Z,63.65
2018-04-14T02:48:02.006Z,62.22
2018-04-14T02:50:30.270Z,61.77
2018-04-14T02:52:58.544Z,60.20
2018-04-14T02:55:26.852Z,63.97
2018-04-14T02:57:55.121Z,63.50
2018-04-14T03:00:23.385Z,61.45
2018-04-14T03:02:51.676Z,62.67
2018-04-14T03:05:19.931Z,65.40
2018-04-14T03:07:48.213Z,64.75
2018-04-14T03:10:16.547Z,61.67
2018-04-14T03:12:44.752Z,62.05
2018-04-14T03:15:13.009Z,62.28
2018-04-14T03:17:42.040Z,63.03
2018-04-14T03:20:10.305Z,58.25
2018-04-14T03:22:38.576Z,61.45
2018-04-14T03:25:06.834Z,56.75
2018-04-14T03:27:35.157Z,50.95
2018-04-14T03:30:03.422Z,49.45
2018-04-14T03:32:31.681Z,43.85
2018-04-14T03:34:59.971Z,44.40
2018-04-14T03:37:28.236Z,39.08
2018-04-14T03:39:56.504Z,40.17
2018-04-14T03:42:24.799Z,40.75
2018-04-14T03:44:53.072Z,40.08
2018-04-14T03:47:21.336Z,39.25
2018-04-14T03:49:49.607Z,39.83
2018-04-14T03:52:17.867Z,40.72
2018-04-14T03:54:46.175Z,43.42
2018-04-14T03:57:14.457Z,41.85
2018-04-14T03:59:42.832Z,38.55
2018-04-14T04:02:11.093Z,43.63
2018-04-14T04:04:39.356Z,47.47
2018-04-14T04:07:07.664Z,46.20
2018-04-14T04:09:36.020Z,48.47
2018-04-14T04:12:04.284Z,45.88
2018-04-14T04:14:32.592Z,51.20
2018-04-14T04:17:00.853Z,48.67
2018-04-14T04:19:41.062Z,51.13
2018-04-14T04:22:22.052Z,49.42
2018-04-14T04:25:01.964Z,54.33
2018-04-14T04:27:29.976Z,54.90
2018-04-14T04:29:58.005Z,52.85
2018-04-14T04:32:26.060Z,55.50
2018-04-14T04:34:54.084Z,58.10
2018-04-14T04:37:22.106Z,60.17
2018-04-14T04:39:50.156Z,61.00
2018-04-14T04:42:18.276Z,66.68
2018-04-14T04:44:46.249Z,62.45
2018-04-14T04:47:14.363Z,70.10
2018-04-14T04:49:42.444Z,64.65
2018-04-14T04:52:10.509Z,71.20
2018-04-14T04:54:38.588Z,71.65
2018-04-14T04:57:06.604Z,72.07
2018-04-14T04:59:34.622Z,72.32
2018-04-14T05:02:02.644Z,71.55
2018-04-14T05:04:30.765Z,73.43
2018-04-14T05:06:58.837Z,74.12
2018-04-14T05:09:26.860Z,74.00
2018-04-14T05:11:54.972Z,73.85
2018-04-14T05:14:22.994Z,72.65
2018-04-14T05:16:51.120Z,74.90
2018-04-14T05:19:19.189Z,70.70
2018-04-14T05:21:47.257Z,75.03
2018-04-14T05:24:15.311Z,70.40
2018-04-14T05:26:43.392Z,71.30
2018-04-14T05:29:11.413Z,67.75
2018-04-14T05:31:39.540Z,75.87
2018-04-14T05:34:07.563Z,72.82
2018-04-14T05:36:35.587Z,69.57
2018-04-14T05:39:03.600Z,72.57
2018-04-14T05:41:31.720Z,67.00
2018-04-14T05:43:59.728Z,63.93
2018-04-14T05:46:27.760Z,66.32
2018-04-14T05:48:55.780Z,63.87
2018-04-14T05:51:23.797Z,67.33
2018-04-14T05:53:51.868Z,66.25
2018-04-14T05:56:19.943Z,64.17
2018-04-14T05:58:47.951Z,56.90
2018-04-14T06:01:15.988Z,62.73
2018-04-14T06:03:44.005Z,55.40
2018-04-14T06:06:12.117Z,57.47
2018-04-14T06:08:40.961Z,59.33
2018-04-14T06:11:08.976Z,58.60
2018-04-14T06:13:36.993Z,59.93
2018-04-14T06:16:05.012Z,59.80
2018-04-14T06:18:33.788Z,58.13
2018-04-14T06:21:02.566Z,58.50
2018-04-14T06:23:30.664Z,56.93
2018-04-14T06:25:58.768Z,58.47
2018-04-14T06:28:26.809Z,57.63
2018-04-14T06:30:54.822Z,60.47
2018-04-14T06:33:22.940Z,53.90
2018-04-14T06:35:51.717Z,59.03
2018-04-14T06:38:20.508Z,58.63
2018-04-14T06:40:49.282Z,52.00
2018-04-14T06:43:17.304Z,52.37
2018-04-14T06:45:45.335Z,55.60
2018-04-14T06:48:14.236Z,52.67
2018-04-14T06:50:42.253Z,50.33
2018-04-14T06:53:10.270Z,50.37
2018-04-14T06:55:39.049Z,47.40
2018-04-14T06:58:07.834Z,50.37
2018-04-14T07:00:36.620Z,53.00
2018-04-14T07:03:05.420Z,50.77
2018-04-14T07:05:33.433Z,47.03
2018-04-14T07:08:01.448Z,47.90
2018-04-14T07:10:30.247Z,49.33
2018-04-14T07:12:58.277Z,46.73
2018-04-14T07:15:26.293Z,48.07
2018-04-14T07:17:54.361Z,46.37
2018-04-14T07:20:22.377Z,48.30
2018-04-14T07:22:50.392Z,46.37
2018-04-14T07:25:19.192Z,49.73
2018-04-14T07:27:47.204Z,48.37
2018-04-14T07:30:15.316Z,46.73
2018-04-14T07:32:44.121Z,43.93
2018-04-14T07:35:12.129Z,44.43
2018-04-14T07:37:40.144Z,46.87
2018-04-14T07:40:08.921Z,42.33
2018-04-14T07:42:37.720Z,43.20
2018-04-14T07:45:06.512Z,46.90
2018-04-14T07:47:35.288Z,44.90
2018-04-14T07:50:04.068Z,42.47
2018-04-14T07:52:32.876Z,45.30
2018-04-14T07:55:00.953Z,42.57
2018-04-14T07:57:28.952Z,44.10
2018-04-14T07:59:56.986Z,41.37
2018-04-14T08:02:25.757Z,42.47
2018-04-14T08:04:54.540Z,41.13
2018-04-14T08:07:22.548Z,40.83
2018-04-14T08:09:50.568Z,39.77
2018-04-14T08:12:18.667Z,41.33
2018-04-14T08:14:47.452Z,39.17
2018-04-14T08:17:16.261Z,39.60
2018-04-14T08:19:44.308Z,37.83
2018-04-14T08:22:13.112Z,36.83
2018-04-14T08:24:41.175Z,38.40
2018-04-14T08:27:10.754Z,39.07
2018-04-14T08:29:38.852Z,36.87
2018-04-14T08:32:07.633Z,37.67
2018-04-14T08:34:36.424Z,35.77
2018-04-14T08:37:05.210Z,34.47
2018-04-14T08:39:33.979Z,35.10
2018-04-14T08:42:02.760Z,35.47
2018-04-14T08:44:30.772Z,34.47
2018-04-14T08:46:58.784Z,36.73
2018-04-14T08:49:26.888Z,35.50
2018-04-14T08:51:55.693Z,32.83
2018-04-14T08:54:23.704Z,33.13
2018-04-14T08:56:51.821Z,33.83
2018-04-14T08:59:20.591Z,31.33
2018-04-14T09:01:49.359Z,31.93
2018-04-14T09:04:17.380Z,32.73
2018-04-14T09:06:45.389Z,32.47
2018-04-14T09:09:13.404Z,32.33
2018-04-14T09:11:42.181Z,32.00
2018-04-14T09:14:11.018Z,30.43
2018-04-14T09:16:39.044Z,32.90
2018-04-14T09:19:07.303Z,28.73
2018-04-14T09:21:35.552Z,33.37
2018-04-14T09:24:04.581Z,29.30
2018-04-14T09:26:32.832Z,28.27
2018-04-14T09:29:01.856Z,26.77
2018-04-14T09:31:30.126Z,27.10
2018-04-14T09:33:58.416Z,25.57
2018-04-14T09:36:26.688Z,27.23
2018-04-14T09:38:54.960Z,23.70
2018-04-14T09:41:23.243Z,23.83
2018-04-14T09:43:51.522Z,21.00
2018-04-14T09:46:19.792Z,24.00
2018-04-14T09:48:48.039Z,21.60
2018-04-14T09:51:16.304Z,19.67
2018-04-14T09:53:45.327Z,22.43
2018-04-14T09:56:13.609Z,18.77
2018-04-14T09:58:41.892Z,16.87
2018-04-14T10:01:15.840Z,18.20
2018-04-14T10:03:50.901Z,16.20
2018-04-14T10:06:19.216Z,16.33
2018-04-14T10:08:47.416Z,16.17
2018-04-14T10:11:15.684Z,16.00
2018-04-14T10:13:44.029Z,16.17
2018-04-14T10:16:12.310Z,15.33
2018-04-14T10:18:40.541Z,13.43
2018-04-14T10:21:09.585Z,14.40
2018-04-14T10:23:37.828Z,14.03
2018-04-14T10:26:06.124Z,13.90
2018-04-14T10:28:34.393Z,13.73
2018-04-14T10:31:02.665Z,15.90
2018-04-14T10:33:30.921Z,14.07
2018-04-14T10:35:59.176Z,15.00
2018-04-14T10:38:28.212Z,13.13
2018-04-14T10:40:56.501Z,14.00
2018-04-14T10:43:24.768Z,15.13
2018-04-14T10:45:53.028Z,15.67
2018-04-14T10:48:21.320Z,17.60
2018-04-14T10:50:49.601Z,15.90
2018-04-14T10:53:17.853Z,15.73
2018-04-14T10:55:46.181Z,15.97
2018-04-14T10:58:14.372Z,15.37
2018-04-14T11:00:43.408Z,20.60
2018-04-14T11:03:11.701Z,17.27
2018-04-14T11:05:39.956Z,18.30
2018-04-14T11:08:08.217Z,19.00
2018-04-14T11:10:36.477Z,17.07
2018-04-14T11:13:05.494Z,17.13
2018-04-14T11:15:33.781Z,16.67
2018-04-14T11:18:02.056Z,16.63
2018-04-14T11:20:30.351Z,16.00
2018-04-14T11:22:58.565Z,17.27
2018-04-14T11:25:27.593Z,16.33
2018-04-14T11:27:55.889Z,15.77
2018-04-14T11:30:24.149Z,14.23
2018-04-14T11:32:52.409Z,14.97
2018-04-14T11:35:20.656Z,15.43
2018-04-14T11:37:49.677Z,14.50
2018-04-14T11:40:17.976Z,14.33
2018-04-14T11:42:46.257Z,14.80
2018-04-14T11:45:14.510Z,15.60
2018-04-14T11:47:42.796Z,15.97
2018-04-14T11:50:11.053Z,14.17
2018-04-14T11:52:39.360Z,14.00
2018-04-14T11:55:07.728Z,13.10
2018-04-14T11:57:36.001Z,13.00
2018-04-14T12:00:04.276Z,12.10
2018-04-14T12:02:32.537Z,16.03
2018-04-14T12:05:00.833Z,12.53
2018-04-14T12:07:29.089Z,12.97
2018-04-14T12:09:57.380Z,11.47
2018-04-14T12:12:25.657Z,10.20
2018-04-14T12:14:53.899Z,10.53
2018-04-14T12:17:22.147Z,10.67
2018-04-14T12:19:50.453Z,9.67
2018-04-14T12:22:18.710Z,11.17
2018-04-14T12:24:47.736Z,11.97
2018-04-14T12:27:16.060Z,9.87
2018-04-14T12:29:44.329Z,11.37
2018-04-14T12:32:12.571Z,12.10
2018-04-14T12:34:40.832Z,10.23
2018-04-14T12:37:09.653Z,13.07
2018-04-14T12:39:37.904Z,12.43
2018-04-14T12:42:06.193Z,11.40
2018-04-14T12:44:34.466Z,9.87
2018-04-14T12:47:02.748Z,10.30
2018-04-14T12:49:31.020Z,11.23
2018-04-14T12:51:59.291Z,11.83
2018-04-14T12:54:27.543Z,10.67
2018-04-14T12:56:55.839Z,10.27
2018-04-14T12:59:24.121Z,9.63
2018-04-14T13:01:52.381Z,9.60
2018-04-14T13:04:20.672Z,10.97
2018-04-14T13:06:48.940Z,10.07
2018-04-14T13:09:17.225Z,10.03
2018-04-14T13:11:45.471Z,11.13
2018-04-14T13:14:13.788Z,12.50
2018-04-14T13:16:42.023Z,11.10
2018-04-14T13:19:10.334Z,12.97
2018-04-14T13:21:38.622Z,10.80
2018-04-14T13:24:06.860Z,11.77
2018-04-14T13:26:35.121Z,13.10
2018-04-14T13:29:03.380Z,28.83
2018-04-14T13:31:32.393Z,15.13
2018-04-14T13:34:00.648Z,12.87
2018-04-14T13:36:29.683Z,13.13
2018-04-14T13:38:57.932Z,11.60
2018-04-14T13:41:26.232Z,13.73
2018-04-14T13:43:54.514Z,12.73
2018-04-14T13:46:22.764Z,12.37
2018-04-14T13:48:51.059Z,11.13
2018-04-14T13:51:19.312Z,11.90
2018-04-14T13:53:47.574Z,12.40
2018-04-14T13:56:15.894Z,11.37
2018-04-14T13:58:44.176Z,12.33
2018-04-14T14:01:12.405Z,11.10
2018-04-14T14:03:40.712Z,11.00
2018-04-14T14:06:08.981Z,12.17
2018-04-14T14:08:37.260Z,11.40
2018-04-14T14:11:05.541Z,9.93
2018-04-14T14:13:33.789Z,9.63
2018-04-14T14:16:02.040Z,10.50
2018-04-14T14:18:31.061Z,11.20
2018-04-14T14:20:59.320Z,11.43
2018-04-14T14:23:27.574Z,11.20
2018-04-14T14:25:55.904Z,11.17
2018-04-14T14:28:24.151Z,12.23
2018-04-14T14:30:52.413Z,10.57
2018-04-14T14:33:21.415Z,10.43
2018-04-14T14:35:49.719Z,10.37
2018-04-14T14:38:17.976Z,10.53
2018-04-14T14:40:46.239Z,11.17
2018-04-14T14:43:15.260Z,10.90
2018-04-14T14:45:43.548Z,10.07
2018-04-14T14:48:11.788Z,10.00
2018-04-14T14:50:40.092Z,10.30
2018-04-14T14:53:08.374Z,10.60
2018-04-14T14:55:36.634Z,10.27
2018-04-14T14:58:04.884Z,10.93
2018-04-14T15:00:33.909Z,9.33
2018-04-14T15:03:02.148Z,9.00
2018-04-14T15:05:31.157Z,7.93
2018-04-14T15:07:59.457Z,9.70
2018-04-14T15:10:27.729Z,8.53
2018-04-14T15:12:55.972Z,8.20
2018-04-14T15:15:25.002Z,7.00
2018-04-14T15:17:53.240Z,6.83
2018-04-14T15:20:22.271Z,7.97
2018-04-14T15:22:50.522Z,8.00
2018-04-14T15:25:18.821Z,8.80
2018-04-14T15:27:47.091Z,8.70
2018-04-14T15:30:15.375Z,8.03
2018-04-14T15:32:43.639Z,6.77
2018-04-14T15:35:11.876Z,6.50
2018-04-14T15:37:40.897Z,10.73
2018-04-14T15:40:09.148Z,5.93
2018-04-14T15:42:38.172Z,5.80
2018-04-14T15:45:06.412Z,6.30
2018-04-14T15:47:35.427Z,6.67
2018-04-14T15:50:03.726Z,7.00
2018-04-14T15:52:32.967Z,7.37
2018-04-14T15:55:01.190Z,15.40
2018-04-14T15:57:29.436Z,8.50
2018-04-14T15:59:57.780Z,7.93
2018-04-14T16:02:26.009Z,6.93
2018-04-14T16:04:54.301Z,6.63
2018-04-14T16:07:22.557Z,6.83
2018-04-14T16:09:50.800Z,11.30
2018-04-14T16:12:19.833Z,14.27
2018-04-14T16:14:48.117Z,17.10
2018-04-14T16:17:16.387Z,15.93
2018-04-14T16:19:44.669Z,12.97
2018-04-14T16:22:12.915Z,7.77
2018-04-14T16:24:41.157Z,6.73
2018-04-14T16:27:10.909Z,6.80
2018-04-14T16:29:39.207Z,6.83
2018-04-14T16:32:07.473Z,15.70
2018-04-14T16:34:35.725Z,16.37
2018-04-14T16:37:04.021Z,13.47
2018-04-14T16:39:32.997Z,8.17
2018-04-14T16:42:01.288Z,9.13
2018-04-14T16:44:29.564Z,5.60
2018-04-14T16:46:57.839Z,6.30
2018-04-14T16:49:26.188Z,14.63
2018-04-14T16:51:54.380Z,24.17
2018-04-14T16:54:22.672Z,29.17
2018-04-14T16:56:50.933Z,29.47
2018-04-14T16:59:19.194Z,27.97
2018-04-14T17:01:47.871Z,29.00
2018-04-14T17:04:16.909Z,31.37
2018-04-14T17:06:45.176Z,31.80
2018-04-14T17:09:13.489Z,36.70
2018-04-14T17:11:41.724Z,33.83
2018-04-14T17:14:09.980Z,33.20
2018-04-14T17:16:38.284Z,35.43
2018-04-14T17:19:06.554Z,33.23
2018-04-14T17:21:34.800Z,33.33
2018-04-14T17:24:03.065Z,34.33
2018-04-14T17:26:31.322Z,35.10
2018-04-14T17:28:59.580Z,34.47
2018-04-14T17:31:27.835Z,39.07
2018-04-14T17:33:56.204Z,41.93
2018-04-14T17:36:24.489Z,42.57
2018-04-14T17:38:52.867Z,39.53
2018-04-14T17:41:21.117Z,41.10
2018-04-14T17:43:49.379Z,39.30
2018-04-14T17:46:17.641Z,41.23
2018-04-14T17:48:46.676Z,38.63
2018-04-14T17:51:14.972Z,40.03
2018-04-14T17:53:43.228Z,41.50
2018-04-14T17:56:11.479Z,38.83
2018-04-14T17:58:39.785Z,40.63
2018-04-14T18:01:08.033Z,39.30
2018-04-14T18:03:36.300Z,38.60
2018-04-14T18:06:04.547Z,40.93
2018-04-14T18:08:33.601Z,38.17
2018-04-14T18:11:01.855Z,44.50
2018-04-14T18:13:30.123Z,44.90
2018-04-14T18:15:58.371Z,41.40
2018-04-14T18:18:27.415Z,45.93
2018-04-14T18:20:55.673Z,47.47
2018-04-14T18:23:24.332Z,47.90
2018-04-14T18:25:53.367Z,47.50
2018-04-14T18:28:21.648Z,46.73
2018-04-14T18:30:49.915Z,44.50
2018-04-14T18:33:18.189Z,47.67
2018-04-14T18:35:46.920Z,44.97
2018-04-14T18:38:15.156Z,45.60
2018-04-14T18:40:43.420Z,48.27
2018-04-14T18:43:11.676Z,52.60
2018-04-14T18:45:39.979Z,54.43
2018-04-14T18:48:08.256Z,46.00
2018-04-14T18:50:36.527Z,51.20
2018-04-14T18:53:04.775Z,53.10
2018-04-14T18:55:33.048Z,48.67
2018-04-14T18:58:01.361Z,50.30
2018-04-14T19:00:29.636Z,63.57
2018-04-14T19:02:57.892Z,86.57
2018-04-14T19:05:26.160Z,87.20
2018-04-14T19:07:54.560Z,86.03
2018-04-14T19:10:22.871Z,82.50
2018-04-14T19:12:51.113Z,72.67
2018-04-14T19:15:19.377Z,82.03
2018-04-14T19:17:47.705Z,74.90
2018-04-14T19:20:15.949Z,72.80
2018-04-14T19:22:44.213Z,71.07
2018-04-14T19:25:12.488Z,61.97
2018-04-14T19:27:40.774Z,59.87
2018-04-14T19:30:09.036Z,50.57
2018-04-14T19:32:37.299Z,48.07
2018-04-14T19:35:05.560Z,46.57
2018-04-14T19:37:33.869Z,48.97
2018-04-14T19:40:02.137Z,50.63
2018-04-14T19:42:30.401Z,49.70
2018-04-14T19:44:58.688Z,48.27
2018-04-14T19:47:26.965Z,51.77
2018-04-14T19:49:55.355Z,53.87
2018-04-14T19:52:23.608Z,58.47
2018-04-14T19:54:51.936Z,54.33
2018-04-14T19:57:20.275Z,61.47
2018-04-14T19:59:48.632Z,64.30
2018-04-14T20:02:16.932Z,64.03
2018-04-14T20:04:45.241Z,60.47
2018-04-14T20:07:13.480Z,58.37
2018-04-14T20:09:41.736Z,60.23
2018-04-14T20:12:10.069Z,56.97
2018-04-14T20:14:38.418Z,55.33
2018-04-14T20:17:06.697Z,56.83
2018-04-14T20:19:34.957Z,55.43
2018-04-14T20:22:03.221Z,52.20
2018-04-14T20:24:31.550Z,53.03
2018-04-14T20:26:59.788Z,58.33
2018-04-14T20:29:28.044Z,57.80
2018-04-14T20:31:56.308Z,56.97
2018-04-14T20:34:24.612Z,57.97
2018-04-14T20:36:52.928Z,59.10
2018-04-14T20:39:21.157Z,57.50
2018-04-14T20:41:49.421Z,59.27
2018-04-14T20:44:17.717Z,62.87
2018-04-14T20:46:46.047Z,58.73
2018-04-14T20:49:14.239Z,59.40
2018-04-14T20:51:42.515Z,58.33
2018-04-14T20:54:10.772Z,56.37
2018-04-14T20:56:39.800Z,56.83
2018-04-14T20:59:08.108Z,55.53
2018-04-14T21:01:36.378Z,54.57
2018-04-14T21:04:04.736Z,49.83
2018-04-14T21:06:33.004Z,51.67
2018-04-14T21:09:01.358Z,51.07
2018-04-14T21:11:29.621Z,54.73
2018-04-14T21:13:58.645Z,52.13
2018-04-14T21:16:26.925Z,54.00
2018-04-14T21:18:55.226Z,51.03
2018-04-14T21:21:23.518Z,50.87
2018-04-14T21:23:51.768Z,55.20
2018-04-14T21:26:20.025Z,53.47
2018-04-14T21:28:48.283Z,52.67
2018-04-14T21:31:16.541Z,53.90
2018-04-14T21:33:45.688Z,56.03
2018-04-14T21:36:13.941Z,58.43
2018-04-14T21:38:42.204Z,60.30
2018-04-14T21:41:10.534Z,54.20
2018-04-14T21:43:38.745Z,62.63
2018-04-14T21:46:07.767Z,59.67
2018-04-14T21:48:36.040Z,59.80
2018-04-14T21:51:04.300Z,60.30
2018-04-14T21:53:32.570Z,54.93
2018-04-14T21:56:00.887Z,76.80
2018-04-14T21:58:29.148Z,67.43
2018-04-14T22:00:57.411Z,65.90
2018-04-14T22:03:25.667Z,62.60
2018-04-14T22:05:53.976Z,63.90
2018-04-14T22:08:22.256Z,62.47
2018-04-14T22:10:50.514Z,65.47
2018-04-14T22:13:18.814Z,63.40
2018-04-14T22:15:47.070Z,65.45
2018-04-14T22:18:15.333Z,60.47
2018-04-14T22:20:43.646Z,61.72
2018-04-14T22:23:12.020Z,62.13
2018-04-14T22:25:40.289Z,60.15
2018-04-14T22:28:08.563Z,59.75
2018-04-14T22:30:36.856Z,59.22
2018-04-14T22:33:05.067Z,63.67
2018-04-14T22:35:33.394Z,58.42
2018-04-14T22:38:01.668Z,65.53
2018-04-14T22:40:29.924Z,62.88
2018-04-14T22:42:58.180Z,64.77
2018-04-14T22:45:26.449Z,62.58
2018-04-14T22:47:54.769Z,65.07
2018-04-14T22:50:23.045Z,73.13
2018-04-14T22:52:51.304Z,67.37
2018-04-14T22:55:19.563Z,74.57
2018-04-14T22:57:47.876Z,72.43
2018-04-14T23:00:16.968Z,70.22
2018-04-14T23:02:45.031Z,66.45
2018-04-14T23:05:13.297Z,81.35
2018-04-14T23:07:41.555Z,80.60
2018-04-14T23:10:09.851Z,86.32
2018-04-14T23:12:38.111Z,83.75
2018-04-14T23:15:06.411Z,82.00
2018-04-14T23:17:34.697Z,88.57
2018-04-14T23:20:02.960Z,77.60
2018-04-14T23:22:31.848Z,85.18
2018-04-14T23:25:00.107Z,81.97
2018-04-14T23:27:30.207Z,81.90
2018-04-14T23:29:58.524Z,76.97
2018-04-14T23:32:26.780Z,80.55
2018-04-14T23:34:55.036Z,81.68
2018-04-14T23:37:23.291Z,71.95
2018-04-14T23:39:52.329Z,68.50
2018-04-14T23:42:20.595Z,67.28
2018-04-14T23:44:48.892Z,71.12
2018-04-14T23:47:17.166Z,70.68
2018-04-14T23:49:45.419Z,64.20
2018-04-14T23:52:13.712Z,62.80
2018-04-14T23:54:41.993Z,68.25
2018-04-14T23:57:10.898Z,67.78
2018-04-14T23:59:39.148Z,65.62
